Time;durP1;ratioP1;P1;durP2;ratioP2;P2;SDS_P1;SDS_P2;PMS_P1;PMS_P2;Temp;Humidity;BMP_temperature;BMP_pressure;BME280_temperature;BME280_humidity;BME280_pressure;Samples;Min_cycle;Max_cycle;Signal;HPM_P1;HPM_P2
2022/11/21 00:00:52;;;;;;;42.08;4.47;;;;;;;21.37;63.61;98288.44;7310036;19;129484;-38
2022/11/21 00:03:18;;;;;;;38.40;4.30;;;;;;;21.31;64.35;98283.91;7315509;19;129314;-38
2022/11/21 00:05:45;;;;;;;44.88;4.57;;;;;;;21.27;63.85;98277.38;7316121;19;129563;-38
2022/11/21 00:08:14;;;;;;;34.78;3.80;;;;;;;21.25;64.68;98279.34;7316907;19;130002;-37
2022/11/21 00:10:40;;;;;;;29.63;3.65;;;;;;;21.23;64.17;98272.66;7317108;19;130084;-38
2022/11/21 00:13:07;;;;;;;89.55;8.32;;;;;;;21.19;64.84;98259.09;7308904;19;130377;-38
2022/11/21 00:15:34;;;;;;;44.88;4.75;;;;;;;21.15;64.94;98252.59;7314653;19;128996;-38
2022/11/21 00:18:01;;;;;;;35.00;3.83;;;;;;;21.10;64.62;98249.69;7316913;19;129411;-38
2022/11/21 00:20:26;;;;;;;27.20;3.35;;;;;;;21.05;64.71;98241.53;7314244;19;130342;-36
2022/11/21 00:22:52;;;;;;;19.33;2.92;;;;;;;21.01;64.93;98235.00;7317555;19;129968;-38
2022/11/21 00:25:17;;;;;;;26.42;3.22;;;;;;;20.93;65.59;98214.09;7316001;19;128942;-36
2022/11/21 00:27:43;;;;;;;19.30;2.90;;;;;;;21.00;65.52;98222.94;7317900;19;129327;-38
2022/11/21 00:30:09;;;;;;;31.63;3.47;;;;;;;21.00;65.65;98209.88;7314223;19;130103;-39
2022/11/21 00:32:35;;;;;;;30.48;3.72;;;;;;;21.06;65.60;98211.78;7316566;19;130784;-39
2022/11/21 00:35:00;;;;;;;26.38;3.00;;;;;;;21.03;65.28;98186.00;7316210;19;129645;-39
2022/11/21 00:37:26;;;;;;;19.00;3.08;;;;;;;21.22;64.93;98197.84;7316892;19;129197;-38
2022/11/21 00:39:51;;;;;;;28.13;3.33;;;;;;;21.25;64.34;98184.44;7316253;19;130981;-38
2022/11/21 00:42:16;;;;;;;47.30;4.72;;;;;;;21.31;64.31;98189.78;7314719;19;129933;-38
2022/11/21 00:44:42;;;;;;;36.15;4.00;;;;;;;21.24;64.30;98165.31;7315668;19;129158;-38
2022/11/21 00:47:07;;;;;;;21.65;3.33;;;;;;;21.45;64.36;98175.16;7314868;19;129594;-38
2022/11/21 00:49:32;;;;;;;27.40;3.40;;;;;;;21.38;64.17;98169.00;7316811;19;129102;-38
2022/11/21 00:51:58;;;;;;;23.40;3.33;;;;;;;21.35;64.31;98154.47;7314091;19;130397;-38
2022/11/21 00:54:23;;;;;;;11.52;2.58;;;;;;;21.33;64.62;98155.63;7315801;19;129077;-37
2022/11/21 00:56:49;;;;;;;35.10;4.33;;;;;;;21.31;64.50;98153.19;7314192;19;129182;-38
2022/11/21 00:59:14;;;;;;;50.23;5.33;;;;;;;21.20;64.21;98135.28;7313745;19;130289;-38
2022/11/21 01:01:39;;;;;;;4.78;2.20;;;;;;;21.20;64.67;98135.28;7313295;19;131179;-38
2022/11/21 01:04:05;;;;;;;27.40;3.72;;;;;;;21.16;65.06;98139.22;7312874;19;129781;-39
2022/11/21 01:06:30;;;;;;;22.48;3.05;;;;;;;21.18;65.28;98129.41;7314217;19;129201;-36
2022/11/21 01:08:56;;;;;;;41.95;4.40;;;;;;;21.18;64.65;98126.81;7314031;19;129381;-38
2022/11/21 01:11:22;;;;;;;20.83;3.20;;;;;;;21.28;64.51;98116.13;7314682;19;129088;-38
2022/11/21 01:13:48;;;;;;;36.47;4.03;;;;;;;21.35;64.32;98107.44;7315954;19;128819;-37
2022/11/21 01:16:18;;;;;;;63.70;6.17;;;;;;;21.48;64.26;98101.59;7313874;19;129212;-38
2022/11/21 01:18:43;;;;;;;49.75;5.47;;;;;;;21.54;64.12;98096.50;7313169;19;129173;-39
2022/11/21 01:21:15;;;;;;;39.38;4.50;;;;;;;21.58;63.43;98089.94;7311424;19;129621;-38
2022/11/21 01:23:40;;;;;;;22.02;3.10;;;;;;;21.63;63.68;98089.41;7315936;19;129071;-38
2022/11/21 01:26:09;;;;;;;35.78;4.18;;;;;;;21.58;63.18;98081.25;7314654;19;129016;-38
2022/11/21 01:28:35;;;;;;;44.25;4.50;;;;;;;21.62;63.39;98072.88;7314374;19;129726;-38
2022/11/21 01:31:07;;;;;;;13.23;2.53;;;;;;;21.44;63.82;98058.47;7314948;19;130289;-37
2022/11/21 01:33:34;;;;;;;14.40;2.85;;;;;;;21.48;63.37;98076.28;7312515;19;130155;-40
2022/11/21 01:36:06;;;;;;;19.90;3.10;;;;;;;21.44;63.68;98064.53;7314450;19;129470;-38
2022/11/21 01:38:32;;;;;;;34.03;3.83;;;;;;;21.38;63.83;98074.88;7312878;19;130717;-38
2022/11/21 01:40:57;;;;;;;26.87;3.53;;;;;;;21.30;64.25;98054.03;7313714;19;130375;-38
2022/11/21 01:43:23;;;;;;;36.90;4.07;;;;;;;21.32;63.98;98070.38;7314528;19;129075;-40
2022/11/21 01:45:56;;;;;;;25.55;3.47;;;;;;;21.31;64.38;98064.31;7312110;19;129305;-38
2022/11/21 01:48:30;;;;;;;28.98;3.67;;;;;;;21.21;64.59;98062.91;7312834;19;130152;-39
2022/11/21 01:51:00;;;;;;;17.92;2.95;;;;;;;21.19;64.46;98063.09;7312958;19;129695;-39
2022/11/21 01:53:25;;;;;;;56.20;5.82;;;;;;;21.02;64.76;98048.53;7313572;19;129668;-39
2022/11/21 01:55:51;;;;;;;25.15;3.40;;;;;;;21.07;65.48;98067.09;7314140;19;129400;-41
2022/11/21 01:58:17;;;;;;;22.20;3.53;;;;;;;21.04;65.20;98049.13;7312725;19;129227;-38
2022/11/21 02:00:46;;;;;;;30.97;3.77;;;;;;;21.15;65.14;98053.16;7308818;19;129302;-39
2022/11/21 02:03:14;;;;;;;28.00;3.53;;;;;;;21.23;64.94;98048.69;7311365;19;129326;-39
2022/11/21 02:05:40;;;;;;;24.58;3.10;;;;;;;21.28;64.88;98049.00;7313042;19;129292;-39
2022/11/21 02:08:16;;;;;;;40.67;4.55;;;;;;;21.42;63.88;98044.78;7313941;19;130145;-38
2022/11/21 02:11:05;;;;;;;25.95;3.13;;;;;;;21.51;63.40;98039.31;7309393;19;129224;-40
2022/11/21 02:13:31;;;;;;;36.17;4.10;;;;;;;21.60;63.77;98038.25;7313043;19;129113;-40
2022/11/21 02:15:57;;;;;;;20.73;3.17;;;;;;;21.62;63.10;98038.06;7312932;19;129057;-38
2022/11/21 02:18:22;;;;;;;43.42;4.45;;;;;;;21.72;63.12;98041.25;7313442;19;130594;-38
2022/11/21 02:20:56;;;;;;;24.10;3.13;;;;;;;21.60;63.09;98032.22;7312033;19;129714;-37
2022/11/21 02:23:34;;;;;;;54.72;5.32;;;;;;;21.56;63.37;98026.53;7313293;19;129567;-39
2022/11/21 02:26:00;;;;;;;29.85;3.72;;;;;;;21.55;63.60;98030.13;7311838;19;129169;-39
2022/11/21 02:28:25;;;;;;;22.38;2.88;;;;;;;21.39;64.09;98011.13;7312251;19;129356;-38
2022/11/21 02:30:51;;;;;;;30.27;3.72;;;;;;;21.37;63.80;98029.63;7313277;19;130565;-38
2022/11/21 02:33:17;;;;;;;77.55;7.40;;;;;;;21.34;64.52;98027.34;7304268;19;129184;-38
2022/11/21 02:35:43;;;;;;;26.80;3.50;;;;;;;21.31;64.56;98019.88;7311393;19;129225;-39
2022/11/21 02:38:14;;;;;;;20.60;2.90;;;;;;;21.22;64.23;98013.06;7312952;19;130270;-38
2022/11/21 02:40:43;;;;;;;29.20;3.53;;;;;;;21.21;64.60;98010.63;7307001;19;130728;-39
2022/11/21 02:43:14;;;;;;;29.23;3.92;;;;;;;21.20;64.79;98015.06;7310599;19;129029;-38
2022/11/21 02:45:44;;;;;;;45.70;5.05;;;;;;;21.21;64.39;98011.47;7311037;19;129206;-38
2022/11/21 02:48:10;;;;;;;24.27;3.35;;;;;;;21.29;64.36;98014.00;7312291;19;129519;-38
2022/11/21 02:50:38;;;;;;;60.43;6.10;;;;;;;21.34;64.07;98005.63;7310203;19;129625;-40
2022/11/21 02:53:05;;;;;;;11.27;2.42;;;;;;;21.47;64.20;98006.66;7313495;19;129268;-38
2022/11/21 02:55:31;;;;;;;;;;;;;;;21.52;63.96;98004.31;7311804;19;128994;-39
2022/11/21 02:57:56;;;;;;;31.73;3.83;;;;;;;21.56;63.85;98015.25;7310548;19;130067;-39
2022/11/21 03:00:22;;;;;;;34.00;4.07;;;;;;;21.62;63.58;98002.28;7309128;19;129159;-38
2022/11/21 03:02:47;;;;;;;21.30;3.05;;;;;;;21.59;63.16;98004.44;7311655;19;128886;-39
2022/11/21 03:05:17;;;;;;;29.17;3.65;;;;;;;21.53;64.03;98008.59;7308731;19;128690;-38
2022/11/21 03:07:44;;;;;;;36.83;4.28;;;;;;;21.57;63.54;98006.41;7312478;19;130193;-38
2022/11/21 03:10:09;;;;;;;26.92;3.30;;;;;;;21.45;64.17;98003.41;7312072;19;129170;-37
2022/11/21 03:12:36;;;;;;;80.90;7.60;;;;;;;21.39;64.37;97992.84;7307435;19;129283;-38
2022/11/21 03:15:02;;;;;;;53.25;5.07;;;;;;;21.34;64.17;97990.75;7315450;19;128979;-40
2022/11/21 03:17:27;;;;;;;25.75;3.20;;;;;;;21.29;64.38;97994.88;7318239;19;132194;-39
2022/11/21 03:19:53;;;;;;;17.48;2.53;;;;;;;21.23;64.41;97978.13;7317913;19;129717;-38
2022/11/21 03:22:18;;;;;;;22.48;3.60;;;;;;;21.21;65.33;97985.31;7317503;19;129455;-38
2022/11/21 03:24:43;;;;;;;32.58;3.63;;;;;;;21.22;64.64;97984.31;7318103;19;129506;-38
2022/11/21 03:27:09;;;;;;;28.95;3.60;;;;;;;21.22;65.06;97976.47;7320021;19;129811;-38
2022/11/21 03:29:34;;;;;;;28.85;3.60;;;;;;;21.30;64.62;97989.50;7315435;19;130276;-37
2022/11/21 03:31:59;;;;;;;24.02;3.00;;;;;;;21.38;64.73;97991.22;7315765;19;131005;-39
2022/11/21 03:34:25;;;;;;;55.40;5.35;;;;;;;21.43;64.44;97981.06;7316827;19;128872;-38
2022/11/21 03:36:50;;;;;;;42.60;4.17;;;;;;;21.56;63.61;97978.63;7317661;19;130423;-39
2022/11/21 03:39:16;;;;;;;16.88;2.70;;;;;;;21.63;63.25;97980.38;7318283;19;130413;-39
2022/11/21 03:41:41;;;;;;;21.92;3.15;;;;;;;21.64;63.45;97976.75;7316400;19;128992;-38
2022/11/21 03:44:11;;;;;;;47.22;5.32;;;;;;;21.61;63.67;97971.06;7315113;19;129100;-37
2022/11/21 03:46:39;;;;;;;24.33;3.42;;;;;;;21.55;63.36;97972.59;7316953;19;129674;-39
2022/11/21 03:49:05;;;;;;;32.92;4.07;;;;;;;21.51;63.82;97971.34;7316773;19;129516;-38
2022/11/21 03:51:31;;;;;;;32.07;4.03;;;;;;;21.42;63.46;97946.25;7316281;19;128759;-39
2022/11/21 03:53:56;;;;;;;44.92;4.82;;;;;;;21.43;64.13;97968.81;7317730;19;128973;-38
2022/11/21 03:56:22;;;;;;;31.38;3.97;;;;;;;21.39;63.81;97967.53;7316201;19;130774;-38
2022/11/21 03:58:48;;;;;;;9.63;2.67;;;;;;;21.30;64.08;97947.69;7314066;19;129724;-38
2022/11/21 04:01:14;;;;;;;32.03;3.53;;;;;;;21.47;64.08;97964.03;7314576;19;129472;-38
2022/11/21 04:03:43;;;;;;;53.77;5.47;;;;;;;21.55;64.35;97956.91;7316084;19;129249;-38
2022/11/21 04:06:11;;;;;;;28.52;3.40;;;;;;;21.72;63.37;97955.75;7316085;19;130250;-39
2022/11/21 04:08:36;;;;;;;40.10;4.50;;;;;;;21.90;63.14;97956.22;7314926;19;129235;-38
2022/11/21 04:11:02;;;;;;;30.73;3.67;;;;;;;22.04;62.21;97951.97;7313775;19;129158;-39
2022/11/21 04:13:28;;;;;;;21.23;2.80;;;;;;;22.25;61.99;97953.81;7311833;19;130920;-37
2022/11/21 04:15:53;;;;;;;6.27;2.20;;;;;;;22.34;61.68;97953.56;7316922;19;129501;-38
2022/11/21 04:18:18;;;;;;;20.30;2.72;;;;;;;22.39;61.56;97945.97;7318817;19;130297;-38
2022/11/21 04:20:44;;;;;;;24.47;3.20;;;;;;;22.56;60.72;97942.13;7313467;19;129303;-37
2022/11/21 04:23:09;;;;;;;23.48;3.03;;;;;;;22.58;60.79;97944.56;7317470;19;128721;-38
2022/11/21 04:25:35;;;;;;;26.85;3.25;;;;;;;22.65;60.45;97934.97;7313647;19;130120;-39
2022/11/21 04:28:02;;;;;;;25.75;2.92;;;;;;;22.66;60.23;97934.00;7315426;19;129195;-38
2022/11/21 04:30:28;;;;;;;15.48;2.47;;;;;;;22.60;60.54;97929.47;7315966;19;129091;-39
2022/11/21 04:32:55;;;;;;;22.20;2.97;;;;;;;22.56;61.15;97928.25;7316397;19;129558;-39
2022/11/21 04:35:22;;;;;;;33.30;3.90;;;;;;;22.49;60.40;97935.19;7312106;19;129788;-37
2022/11/21 04:37:47;;;;;;;31.55;3.58;;;;;;;22.42;60.88;97922.03;7315800;19;129883;-37
2022/11/21 04:40:13;;;;;;;53.75;5.28;;;;;;;22.39;61.45;97926.81;7314481;19;128941;-37
2022/11/21 04:42:43;;;;;;;26.63;3.25;;;;;;;22.25;61.60;97917.19;7317405;19;129714;-39
2022/11/21 04:45:09;;;;;;;42.53;4.15;;;;;;;22.18;61.57;97927.56;7312132;19;129170;-36
2022/11/21 04:47:36;;;;;;;23.90;3.03;;;;;;;22.12;62.39;97919.66;7315156;19;129290;-38
2022/11/21 04:50:02;;;;;;;30.42;3.63;;;;;;;22.00;61.97;97919.31;7315253;19;129060;-34
2022/11/21 04:52:27;;;;;;;30.43;3.47;;;;;;;21.90;62.69;97914.38;7315869;19;129095;-38
2022/11/21 04:54:52;;;;;;;27.67;2.95;;;;;;;21.83;63.07;97923.91;7314802;19;129401;-38
2022/11/21 04:57:18;;;;;;;55.83;5.97;;;;;;;21.75;63.43;97913.53;7313675;19;129646;-37
2022/11/21 04:59:43;;;;;;;30.05;3.47;;;;;;;21.67;63.08;97910.19;7313002;19;130125;-40
2022/11/21 05:02:08;;;;;;;20.17;2.67;;;;;;;21.59;63.90;97915.50;7311158;19;129291;-37
2022/11/21 05:04:34;;;;;;;36.88;4.20;;;;;;;21.54;64.05;97916.06;7313676;19;129074;-38
2022/11/21 05:06:59;;;;;;;24.67;3.38;;;;;;;21.45;64.10;97909.28;7314758;19;131081;-38
2022/11/21 05:09:24;;;;;;;31.90;3.67;;;;;;;21.44;64.48;97917.31;7314919;19;128733;-39
2022/11/21 05:14:33;;;;;;;34.88;3.88;;;;;;;21.35;64.28;97919.22;7313960;19;128851;-36
2022/11/21 05:16:59;;;;;;;25.60;3.08;;;;;;;21.27;64.87;97921.88;7314277;19;129587;-39
2022/11/21 05:19:24;;;;;;;19.25;2.83;;;;;;;21.23;65.09;97923.25;7313636;19;130770;-39
2022/11/21 05:21:49;;;;;;;14.55;2.70;;;;;;;21.17;65.58;97921.31;7312597;19;128905;-38
2022/11/21 05:24:15;;;;;;;23.25;3.10;;;;;;;21.16;65.50;97924.94;7313510;19;129134;-39
2022/11/21 05:26:40;;;;;;;27.92;3.17;;;;;;;21.15;65.67;97925.13;7315258;19;129673;-39
2022/11/21 05:29:06;;;;;;;23.17;2.70;;;;;;;21.16;65.86;97927.53;7313729;19;129958;-38
2022/11/21 05:31:31;;;;;;;20.63;2.47;;;;;;;21.05;65.72;97925.38;7312089;19;129139;-38
2022/11/21 05:33:56;;;;;;;77.07;7.00;;;;;;;21.12;65.94;97923.66;7312803;19;129203;-39
2022/11/21 05:36:22;;;;;;;33.28;3.50;;;;;;;21.07;65.66;97933.03;7312193;19;129148;-38
2022/11/21 05:38:47;;;;;;;20.85;2.47;;;;;;;21.02;65.94;97933.56;7313839;19;129373;-38
2022/11/21 05:41:12;;;;;;;24.88;2.97;;;;;;;21.02;65.85;97930.94;7312456;19;129636;-39
2022/11/21 05:43:46;;;;;;;24.65;3.13;;;;;;;21.05;65.71;97933.22;7311396;19;129119;-39
2022/11/21 05:46:14;;;;;;;35.80;3.78;;;;;;;21.10;66.06;97933.50;7314827;19;129147;-38
2022/11/21 05:48:40;;;;;;;50.63;4.88;;;;;;;21.08;65.94;97938.06;7314308;19;130099;-38
2022/11/21 05:51:05;;;;;;;42.25;4.57;;;;;;;21.10;65.16;97933.50;7312492;19;129055;-38
2022/11/21 05:53:32;;;;;;;33.17;3.42;;;;;;;21.18;65.79;97941.25;7316334;19;130454;-38
2022/11/21 05:56:06;;;;;;;30.83;3.65;;;;;;;21.20;65.38;97934.06;7310065;19;131058;-32
2022/11/21 05:58:33;;;;;;;35.95;3.65;;;;;;;21.31;64.81;97944.06;7312084;19;128839;-34
2022/11/21 06:00:59;;;;;;;22.90;2.88;;;;;;;21.45;64.37;97945.88;7309452;19;129483;-34
2022/11/21 06:03:26;;;;;;;35.78;3.75;;;;;;;21.56;63.88;97948.06;7311656;19;130217;-37
2022/11/21 06:06:03;;;;;;;24.65;2.80;;;;;;;21.56;63.41;97940.22;7313015;19;129969;-34
2022/11/21 06:08:30;;;;;;;27.70;3.08;;;;;;;21.75;63.51;97958.00;7309294;19;129522;-37
2022/11/21 06:10:55;;;;;;;27.02;3.10;;;;;;;21.84;62.68;97956.97;7309342;19;129035;-32
2022/11/21 06:13:21;;;;;;;40.50;4.07;;;;;;;21.83;62.85;97960.53;7308373;19;130152;-37
2022/11/21 06:15:52;;;;;;;27.80;3.20;;;;;;;21.86;63.06;97968.06;7309475;19;129617;-31
2022/11/21 06:18:18;;;;;;;30.92;3.35;;;;;;;21.88;63.12;97973.13;7310975;19;129260;-31
2022/11/21 06:20:44;;;;;;;30.23;3.30;;;;;;;21.91;62.45;97975.34;7307906;19;130553;-35
2022/11/21 06:23:10;;;;;;;26.67;3.20;;;;;;;21.93;62.29;97979.41;7310686;19;131606;-36
2022/11/21 06:25:35;;;;;;;28.02;3.08;;;;;;;21.92;62.46;97964.72;7309931;19;130844;-38
2022/11/21 06:28:00;;;;;;;17.45;2.50;;;;;;;22.08;62.59;97983.84;7309416;19;129134;-32
2022/11/21 06:30:26;;;;;;;31.00;3.50;;;;;;;22.03;62.00;97971.31;7312704;19;129294;-35
2022/11/21 06:32:51;;;;;;;23.23;2.73;;;;;;;22.21;62.16;98000.53;7313084;19;129171;-37
2022/11/21 06:35:16;;;;;;;27.20;2.93;;;;;;;22.25;61.20;97995.72;7311140;19;130469;-37
2022/11/21 06:37:42;;;;;;;68.88;6.15;;;;;;;22.29;61.42;98007.47;7307890;19;130148;-35
2022/11/21 06:40:08;;;;;;;51.78;4.72;;;;;;;22.33;61.68;98008.72;7309028;19;128962;-37
2022/11/21 06:42:33;;;;;;;10.50;1.90;;;;;;;22.33;61.64;98016.59;7313286;19;129737;-34
2022/11/21 06:44:59;;;;;;;22.23;2.50;;;;;;;22.39;61.36;98021.09;7310405;19;132043;-34
2022/11/21 06:47:24;;;;;;;34.50;3.60;;;;;;;22.31;61.66;98015.94;7310357;19;129704;-34
2022/11/21 06:49:49;;;;;;;27.60;2.83;;;;;;;22.27;61.30;98027.75;7318074;19;129289;-32
2022/11/21 06:52:15;;;;;;;37.73;4.00;;;;;;;22.23;61.41;98029.13;7314470;19;130905;-33
2022/11/21 06:54:40;;;;;;;32.67;3.17;;;;;;;22.14;61.78;98036.25;7315710;19;130112;-34
2022/11/21 06:57:06;;;;;;;24.90;2.83;;;;;;;22.07;61.72;98039.78;7317541;19;129472;-34
2022/11/21 06:59:31;;;;;;;27.67;3.20;;;;;;;22.05;62.03;98047.00;7319384;19;128955;-34
2022/11/21 07:01:56;;;;;;;63.83;5.93;;;;;;;22.00;62.69;98049.34;7310830;19;130871;-35
2022/11/21 07:04:22;;;;;;;31.87;3.57;;;;;;;21.89;62.55;98058.44;7317440;19;131134;-33
2022/11/21 07:06:47;;;;;;;19.88;2.38;;;;;;;21.83;62.99;98069.63;7319196;19;129315;-36
2022/11/21 07:09:12;;;;;;;39.57;3.77;;;;;;;21.78;62.73;98067.53;7318369;19;130211;-34
2022/11/21 07:11:38;;;;;;;24.77;2.88;;;;;;;21.69;63.03;98079.03;7317856;19;129661;-35
2022/11/21 07:14:03;;;;;;;38.80;3.60;;;;;;;21.65;62.95;98080.38;7319315;19;130554;-31
2022/11/21 07:16:31;;;;;;;17.70;2.40;;;;;;;21.60;64.03;98085.31;7317305;19;129531;-37
2022/11/21 07:18:56;;;;;;;21.60;2.67;;;;;;;21.54;63.61;98090.44;7319415;19;129310;-34
2022/11/21 07:21:22;;;;;;;36.08;4.20;;;;;;;21.37;64.12;98079.28;7313937;19;130897;-33
2022/11/21 07:23:47;;;;;;;57.83;5.32;;;;;;;21.42;64.31;98103.09;7309303;19;129709;-36
2022/11/21 07:26:13;;;;;;;33.13;3.38;;;;;;;21.40;64.21;98109.50;7309296;19;130257;-38
2022/11/21 07:28:39;;;;;;;64.60;5.80;;;;;;;21.38;64.73;98112.31;7310122;19;130284;-35
2022/11/21 07:31:04;;;;;;;54.90;5.13;;;;;;;21.36;64.31;98123.91;7308537;19;130823;-31
2022/11/21 07:33:30;;;;;;;50.97;5.13;;;;;;;21.32;64.80;98128.66;7309100;19;129329;-34
2022/11/21 07:35:56;;;;;;;48.20;4.72;;;;;;;21.27;64.87;98130.97;7307838;19;129563;-34
2022/11/21 07:38:23;;;;;;;26.70;3.03;;;;;;;21.25;64.61;98138.22;7315070;19;131160;-35
2022/11/21 07:40:48;;;;;;;17.92;2.40;;;;;;;21.23;65.00;98134.94;7314484;19;130510;-34
2022/11/21 07:43:13;;;;;;;22.80;2.45;;;;;;;21.21;65.17;98136.09;7317856;19;129908;-37
2022/11/21 07:45:39;;;;;;;41.30;4.17;;;;;;;21.12;64.99;98137.94;7311756;19;130075;-37
2022/11/21 07:48:06;;;;;;;21.10;2.70;;;;;;;21.17;65.14;98156.53;7319599;19;129199;-34
2022/11/21 07:50:32;;;;;;;41.75;3.97;;;;;;;21.22;65.31;98150.81;7312973;19;130547;-37
2022/11/21 07:52:58;;;;;;;25.23;2.88;;;;;;;21.13;65.19;98159.66;7318727;19;130503;-34
2022/11/21 07:55:24;;;;;;;13.48;1.98;;;;;;;21.15;66.03;98161.13;7315915;19;128831;-38
2022/11/21 07:58:04;;;;;;;66.53;6.37;;;;;;;21.13;65.18;98170.13;7316119;19;129214;-39
2022/11/21 08:00:31;;;;;;;17.30;2.25;;;;;;;21.14;65.70;98177.78;7313460;19;129451;-33
2022/11/21 08:02:56;;;;;;;17.83;2.47;;;;;;;21.02;65.58;98179.16;7318648;19;130061;-34
2022/11/21 08:05:22;;;;;;;36.55;3.60;;;;;;;21.10;65.80;98194.81;7315639;19;129138;-37
2022/11/21 08:07:48;;;;;;;61.93;5.37;;;;;;;21.11;65.31;98204.25;7317385;19;128813;-36
2022/11/21 08:10:14;;;;;;;19.63;2.87;;;;;;;21.04;64.25;98200.69;7315936;19;131032;-34
2022/11/21 08:12:39;;;;;;;23.95;3.30;;;;;;;21.05;63.91;98209.34;7316087;19;129819;-35
2022/11/21 08:15:06;;;;;;;33.63;3.73;;;;;;;20.99;64.37;98200.38;7313246;19;130107;-34
2022/11/21 08:17:31;;;;;;;30.07;3.53;;;;;;;21.08;64.54;98209.81;7317285;19;129368;-31
2022/11/21 08:19:59;;;;;;;28.83;3.47;;;;;;;21.08;64.95;98214.22;7315697;19;129416;-35
2022/11/21 08:22:24;;;;;;;28.02;3.55;;;;;;;21.21;63.64;98225.78;7314382;19;130519;-38
2022/11/21 08:24:50;;;;;;;30.50;6.22;;;;;;;21.08;59.42;98224.69;7315597;19;129195;-33
2022/11/21 08:27:19;;;;;;;23.80;5.45;;;;;;;21.01;59.90;98221.94;7313435;19;128876;-33
2022/11/21 08:29:44;;;;;;;71.88;8.15;;;;;;;21.11;61.11;98230.38;7313948;19;130873;-34
2022/11/21 08:32:10;;;;;;;25.85;4.68;;;;;;;21.06;62.25;98230.09;7311240;19;130371;-38
2022/11/21 08:34:35;;;;;;;39.97;5.50;;;;;;;21.25;61.62;98242.75;7312457;19;129054;-38
2022/11/21 08:37:01;;;;;;;25.80;4.25;;;;;;;21.34;62.16;98256.59;7311728;19;130431;-37
2022/11/21 08:39:26;;;;;;;38.53;5.18;;;;;;;21.45;61.37;98253.63;7315543;19;129327;-34
2022/11/21 08:42:04;;;;;;;35.40;4.78;;;;;;;21.55;61.77;98255.00;7314680;19;129236;-31
2022/11/21 08:44:31;;;;;;;36.55;5.20;;;;;;;21.71;60.84;98261.97;7314507;19;128731;-34
2022/11/21 08:46:56;;;;;;;25.88;3.65;;;;;;;21.84;61.27;98263.06;7315784;19;128916;-33
2022/11/21 08:49:22;;;;;;;25.25;3.70;;;;;;;21.91;60.25;98271.81;7315516;19;129767;-34
2022/11/21 08:51:48;;;;;;;25.88;3.63;;;;;;;22.06;59.97;98273.69;7311995;19;129410;-34
2022/11/21 08:54:17;;;;;;;38.50;4.60;;;;;;;22.16;59.92;98285.59;7314912;19;128933;-33
2022/11/21 08:56:43;;;;;;;26.55;3.90;;;;;;;22.25;59.38;98288.94;7316060;19;129620;-34
2022/11/21 08:59:09;;;;;;;16.60;2.97;;;;;;;22.23;59.88;98277.84;7316930;19;130350;-33
2022/11/21 09:01:34;;;;;;;35.23;4.23;;;;;;;22.43;59.53;98289.47;7313256;19;130731;-32
2022/11/21 09:04:00;;;;;;;46.53;5.00;;;;;;;22.48;58.85;98294.97;7314789;19;129241;-36
2022/11/21 09:06:25;;;;;;;35.15;5.05;;;;;;;22.49;59.23;98286.13;7308224;19;131028;-37
2022/11/21 09:08:51;;;;;;;38.37;4.27;;;;;;;22.64;59.01;98292.25;7308846;19;130147;-36
2022/11/21 09:11:17;;;;;;;25.40;3.70;;;;;;;22.65;59.02;98288.63;7312591;19;130617;-37
2022/11/21 09:13:42;;;;;;;44.10;4.97;;;;;;;22.61;58.94;98292.59;7316090;19;128741;-37
2022/11/21 09:18:54;;;;;;;30.80;3.90;;;;;;;22.63;58.63;98282.75;7315958;19;130959;-38
2022/11/21 09:21:20;;;;;;;41.65;4.40;;;;;;;22.57;58.73;98304.41;7313847;19;130450;-35
2022/11/21 09:23:46;;;;;;;63.60;6.30;;;;;;;22.54;59.24;98316.09;7311081;19;129149;-39
2022/11/21 09:26:12;;;;;;;71.87;6.87;;;;;;;22.44;59.52;98314.66;7306425;19;129128;-39
2022/11/21 09:28:40;;;;;;;27.23;3.83;;;;;;;22.39;59.43;98322.22;7312756;19;129187;-39
2022/11/21 09:31:06;;;;;;;30.88;3.60;;;;;;;22.28;60.06;98315.56;7311113;19;129224;-35
2022/11/21 09:33:31;;;;;;;39.40;4.68;;;;;;;22.22;59.93;98325.94;7310875;19;129556;-35
2022/11/21 09:36:00;;;;;;;49.28;5.20;;;;;;;22.16;60.44;98324.03;7305688;19;130288;-35
2022/11/21 09:38:26;;;;;;;53.72;5.70;;;;;;;22.10;60.52;98340.44;7307922;19;129047;-34
2022/11/21 09:40:59;;;;;;;63.85;6.35;;;;;;;21.96;60.45;98332.31;7305534;19;130356;-35
2022/11/21 09:43:55;;;;;;;48.75;5.35;;;;;;;21.88;60.58;98334.97;7304555;19;129428;-38
2022/11/21 09:46:24;;;;;;;25.27;3.42;;;;;;;21.85;61.11;98344.97;7306585;19;131021;-36
2022/11/21 09:48:57;;;;;;;34.42;4.30;;;;;;;21.77;61.11;98345.84;7312726;19;129252;-33
2022/11/21 09:51:27;;;;;;;31.48;3.72;;;;;;;21.72;61.78;98344.66;7311764;19;132321;-36
2022/11/21 09:54:07;;;;;;;32.42;4.07;;;;;;;21.64;62.26;98342.91;7310662;19;129211;-36
2022/11/21 09:56:35;;;;;;;;;;;;;;;21.55;62.06;98343.13;7314098;19;129543;-33
2022/11/21 09:59:31;;;;;;;49.78;5.68;;;;;;;21.52;62.07;98339.03;7312481;19;130446;-38
2022/11/21 10:01:57;;;;;;;30.38;3.65;;;;;;;21.48;62.36;98342.16;7311923;19;129357;-32
2022/11/21 10:04:22;;;;;;;47.10;5.22;;;;;;;21.45;62.55;98345.91;7313496;19;128884;-36
2022/11/21 10:06:53;;;;;;;32.67;4.00;;;;;;;21.42;62.59;98351.50;7313767;19;128828;-34
2022/11/21 10:10:04;;;;;;;53.45;5.65;;;;;;;21.35;63.00;98353.16;7310505;19;130076;-35
2022/11/21 10:12:48;;;;;;;23.00;3.28;;;;;;;21.27;63.14;98368.84;7310326;19;129433;-34
2022/11/21 10:15:42;;;;;;;44.33;4.63;;;;;;;21.25;62.80;98368.22;7312062;19;128988;-36
2022/11/21 10:18:26;;;;;;;33.35;3.85;;;;;;;21.24;63.81;98368.38;7314733;19;130031;-38
2022/11/21 10:21:16;;;;;;;37.15;4.75;;;;;;;21.21;63.09;98371.31;7304737;19;130963;-37
2022/11/21 10:24:02;;;;;;;50.20;5.43;;;;;;;21.15;63.30;98364.16;7302633;19;130265;-37
2022/11/21 10:26:49;;;;;;;26.35;3.58;;;;;;;21.17;64.00;98370.84;7304780;19;129920;-37
2022/11/21 10:29:38;;;;;;;56.67;5.53;;;;;;;21.15;63.21;98364.97;7302578;19;131734;-37
2022/11/21 10:32:25;;;;;;;91.82;8.88;;;;;;;21.00;60.80;98368.41;7304644;19;130214;-34
2022/11/21 10:34:54;;;;;;;;;;;;;;;20.92;60.13;98364.00;7305282;19;131905;-35
2022/11/21 10:37:43;;;;;;;62.83;7.07;;;;;;;20.90;59.40;98371.19;7307596;19;130115;-38
2022/11/21 10:40:21;;;;;;;45.50;5.70;;;;;;;20.89;59.64;98366.13;7302935;19;130356;-33
2022/11/21 10:42:49;;;;;;;69.00;7.22;;;;;;;20.89;59.21;98376.56;7296559;19;130395;-35
2022/11/21 10:45:18;;;;;;;59.83;6.78;;;;;;;20.88;59.52;98386.19;7298772;19;130657;-42
2022/11/21 10:47:47;;;;;;;36.80;4.57;;;;;;;20.94;59.82;98380.31;7307548;19;129244;-34
2022/11/21 10:50:40;;;;;;;42.53;5.57;;;;;;;20.97;60.05;98384.41;7306758;19;130411;-39
2022/11/21 10:56:16;;;;;;;34.17;4.75;;;;;;;21.08;59.08;98366.63;7298222;19;131012;-33
2022/11/21 10:58:48;;;;;;;25.10;3.90;;;;;;;21.20;57.49;98385.38;7310911;19;128914;-35
2022/11/21 11:01:28;;;;;;;55.63;6.30;;;;;;;21.10;56.58;98367.28;7296757;19;130592;-36
2022/11/21 11:04:14;;;;;;;54.15;6.15;;;;;;;21.29;56.20;98389.59;7305383;19;130222;-33
2022/11/21 11:06:45;;;;;;;36.20;4.65;;;;;;;21.24;55.96;98366.56;7309684;19;130381;-34
2022/11/21 11:09:26;;;;;;;20.23;3.92;;;;;;;21.41;56.37;98398.72;7311500;19;128915;-34
2022/11/21 11:11:52;;;;;;;55.88;6.22;;;;;;;21.51;55.88;98384.50;7300265;19;129575;-32
2022/11/21 11:14:28;;;;;;;81.05;8.45;;;;;;;21.62;55.29;98385.91;7306506;19;130937;-34
2022/11/21 11:16:54;;;;;;;27.15;4.32;;;;;;;21.67;54.97;98389.66;7311994;19;130386;-32
2022/11/21 11:19:25;;;;;;;56.58;6.20;;;;;;;21.88;55.52;98387.31;7301291;19;130909;-36
2022/11/21 11:21:51;;;;;;;62.05;6.47;;;;;;;22.24;52.88;98382.38;7306080;19;132269;-35
2022/11/21 11:24:16;;;;;;;35.45;5.35;;;;;;;21.96;54.64;98382.03;7310753;19;130167;-35
2022/11/21 11:26:47;;;;;;;45.47;6.07;;;;;;;21.95;53.55;98372.56;7306072;19;130626;-35
2022/11/21 11:29:29;;;;;;;28.60;4.82;;;;;;;22.10;53.30;98382.31;7310077;19;129505;-37